createdAt,value
2019-03-04T00:00:06.844Z,71.11
2019-03-04T00:01:11.596Z,70.81
2019-03-04T00:02:10.130Z,70.81
2019-03-04T00:03:08.097Z,70.91
2019-03-04T00:04:08.384Z,71.15
2019-03-04T00:05:06.904Z,71.04
2019-03-04T00:06:06.984Z,70.81
2019-03-04T00:07:08.623Z,70.81
2019-03-04T00:08:06.824Z,70.81
2019-03-04T00:09:06.933Z,70.81
2019-03-04T00:10:07.596Z,70.73
2019-03-04T00:11:10.667Z,70.60
2019-03-04T00:12:08.730Z,70.70
2019-03-04T00:13:06.696Z,70.50
2019-03-04T00:14:06.801Z,70.40
2019-03-04T00:15:06.714Z,70.81
2019-03-04T00:16:06.766Z,70.60
2019-03-04T00:17:06.821Z,70.40
2019-03-04T00:18:07.314Z,70.50
2019-03-04T00:19:06.643Z,70.40
2019-03-04T00:20:07.783Z,70.50
2019-03-04T00:21:06.745Z,70.40
2019-03-04T00:22:09.211Z,70.60
2019-03-04T00:23:07.601Z,70.09
2019-03-04T00:24:06.640Z,70.60
2019-03-04T00:25:06.688Z,70.70
2019-03-04T00:26:06.626Z,70.50
2019-03-04T00:27:06.760Z,70.40
2019-03-04T00:28:06.629Z,70.91
2019-03-04T00:29:06.625Z,70.81
2019-03-04T00:30:06.595Z,70.81
2019-03-04T00:31:06.560Z,70.81
2019-03-04T00:32:06.746Z,70.70
2019-03-04T00:33:06.626Z,70.60
2019-03-04T00:34:06.559Z,70.60
2019-03-04T00:35:06.577Z,70.81
2019-03-04T00:36:06.532Z,70.50
2019-03-04T00:37:06.548Z,70.50
2019-03-04T00:38:06.682Z,70.40
2019-03-04T00:39:06.594Z,70.60
2019-03-04T00:40:07.313Z,70.40
2019-03-04T00:41:07.495Z,70.60
2019-03-04T00:42:06.488Z,70.50
2019-03-04T00:43:06.471Z,70.81
2019-03-04T00:44:06.487Z,70.64
2019-03-04T00:45:06.509Z,70.81
2019-03-04T00:46:06.549Z,70.94
2019-03-04T00:47:06.456Z,70.94
2019-03-04T00:48:06.532Z,70.84
2019-03-04T00:49:06.471Z,70.73
2019-03-04T00:50:07.496Z,70.40
2019-03-04T00:51:07.305Z,70.50
2019-03-04T00:52:10.125Z,70.40
2019-03-04T00:53:06.503Z,70.53
2019-03-04T00:54:06.434Z,70.09
2019-03-04T00:55:06.411Z,70.60
2019-03-04T00:56:06.428Z,69.98
2019-03-04T00:57:06.390Z,70.22
2019-03-04T00:58:08.105Z,70.12
2019-03-04T00:59:06.583Z,70.09
2019-03-04T01:00:06.471Z,69.57
2019-03-04T01:01:06.459Z,69.68
2019-03-04T01:02:06.567Z,69.47
2019-03-04T01:03:06.380Z,70.09
2019-03-04T01:04:06.470Z,69.68
2019-03-04T01:05:06.335Z,69.57
2019-03-04T01:06:06.394Z,69.78
2019-03-04T01:07:06.354Z,69.06
2019-03-04T01:08:06.325Z,69.61
2019-03-04T01:09:06.367Z,69.40
2019-03-04T01:10:06.313Z,69.57
2019-03-04T01:11:06.331Z,69.06
2019-03-04T01:12:06.356Z,69.40
2019-03-04T01:13:06.332Z,69.37
2019-03-04T01:14:06.331Z,69.51
2019-03-04T01:15:06.330Z,70.02
2019-03-04T01:16:06.347Z,70.02
2019-03-04T01:17:06.287Z,70.12
2019-03-04T01:18:06.457Z,69.61
2019-03-04T01:19:06.302Z,69.17
2019-03-04T01:20:06.292Z,69.51
2019-03-04T01:21:06.248Z,69.92
2019-03-04T01:22:06.232Z,70.32
2019-03-04T01:23:06.253Z,70.05
2019-03-04T01:24:06.395Z,70.36
2019-03-04T01:25:07.735Z,70.67
2019-03-04T01:26:06.235Z,70.87
2019-03-04T01:27:07.192Z,70.87
2019-03-04T01:28:07.296Z,70.46
2019-03-04T01:29:06.217Z,70.56
2019-03-04T01:30:06.263Z,70.05
2019-03-04T01:31:06.178Z,70.26
2019-03-04T01:32:06.207Z,70.05
2019-03-04T01:33:06.179Z,70.15
2019-03-04T01:34:06.179Z,70.46
2019-03-04T01:35:06.240Z,70.36
2019-03-04T01:36:06.342Z,70.36
2019-03-04T01:37:06.180Z,70.36
2019-03-04T01:38:06.139Z,70.26
2019-03-04T01:39:06.123Z,70.46
2019-03-04T01:40:06.127Z,70.26
2019-03-04T01:41:06.135Z,70.46
2019-03-04T01:42:06.238Z,70.46
2019-03-04T01:43:06.210Z,70.05
2019-03-04T01:44:06.182Z,69.95
2019-03-04T01:45:06.192Z,69.71
2019-03-04T01:46:07.305Z,69.92
2019-03-04T01:47:06.142Z,68.99
2019-03-04T01:48:06.076Z,69.27
2019-03-04T01:49:07.680Z,68.48
2019-03-04T01:50:06.090Z,68.79
2019-03-04T01:51:06.101Z,68.35
2019-03-04T01:52:06.073Z,68.45
2019-03-04T01:53:06.100Z,68.14
2019-03-04T01:54:06.132Z,68.76
2019-03-04T01:55:06.314Z,68.55
2019-03-04T01:56:06.174Z,68.55
2019-03-04T01:57:06.082Z,68.14
2019-03-04T01:58:06.668Z,68.45
2019-03-04T01:59:06.040Z,68.65
2019-03-04T02:00:06.072Z,68.35
2019-03-04T02:01:06.033Z,68.45
2019-03-04T02:02:06.742Z,68.45
2019-03-04T02:03:06.020Z,68.35
2019-03-04T02:04:05.992Z,68.45
2019-03-04T02:05:06.100Z,68.04
2019-03-04T02:06:06.613Z,67.43
2019-03-04T02:07:06.123Z,67.52
2019-03-04T02:08:05.979Z,67.02
2019-03-04T02:09:05.959Z,67.08
2019-03-04T02:10:06.764Z,66.78
2019-03-04T02:11:05.970Z,66.98
2019-03-04T02:12:05.923Z,66.98
2019-03-04T02:13:06.788Z,66.88
2019-03-04T02:14:05.990Z,67.40
2019-03-04T02:15:06.017Z,66.98
2019-03-04T02:16:05.911Z,67.02
2019-03-04T02:17:05.984Z,67.19
2019-03-04T02:18:05.951Z,67.02
2019-03-04T02:19:06.614Z,67.29
2019-03-04T02:20:05.982Z,67.70
2019-03-04T02:21:05.981Z,67.40
2019-03-04T02:22:07.276Z,67.70
2019-03-04T02:23:06.069Z,67.70
2019-03-04T02:24:05.941Z,68.01
2019-03-04T02:25:05.885Z,68.45
2019-03-04T02:26:05.949Z,68.55
2019-03-04T02:27:06.099Z,68.45
2019-03-04T02:28:05.916Z,68.35
2019-03-04T02:29:05.958Z,68.35
2019-03-04T02:30:05.901Z,68.55
2019-03-04T02:31:07.126Z,68.55
2019-03-04T02:32:07.016Z,68.35
2019-03-04T02:33:07.949Z,67.43
2019-03-04T02:34:05.995Z,67.63
2019-03-04T02:35:05.825Z,67.63
2019-03-04T02:36:05.882Z,67.11
2019-03-04T02:37:05.826Z,66.91
2019-03-04T02:38:07.643Z,67.02
2019-03-04T02:39:07.419Z,66.30
2019-03-04T02:40:05.827Z,66.67
2019-03-04T02:41:05.831Z,66.47
2019-03-04T02:42:06.814Z,66.47
2019-03-04T02:43:05.748Z,66.37
2019-03-04T02:44:05.799Z,66.57
2019-03-04T02:45:05.764Z,66.78
2019-03-04T02:46:05.749Z,66.19
2019-03-04T02:47:05.714Z,66.27
2019-03-04T02:48:05.762Z,67.02
2019-03-04T02:49:06.907Z,66.40
2019-03-04T02:50:05.779Z,67.11
2019-03-04T02:51:05.706Z,67.08
2019-03-04T02:52:07.619Z,66.37
2019-03-04T02:53:05.758Z,67.29
2019-03-04T02:54:05.810Z,66.91
2019-03-04T02:55:05.712Z,67.08
2019-03-04T02:56:05.691Z,66.98
2019-03-04T02:57:05.653Z,66.57
2019-03-04T02:58:05.666Z,66.67
2019-03-04T02:59:07.136Z,66.78
2019-03-04T03:00:06.551Z,66.37
2019-03-04T03:01:07.162Z,66.47
2019-03-04T03:02:06.546Z,66.24
2019-03-04T03:03:05.675Z,66.34
2019-03-04T03:04:06.276Z,66.34
2019-03-04T03:05:05.656Z,66.34
2019-03-04T03:06:05.739Z,66.03
2019-03-04T03:07:05.613Z,65.59
2019-03-04T03:08:06.834Z,65.80
2019-03-04T03:09:05.741Z,64.57
2019-03-04T03:10:10.126Z,64.47
2019-03-04T03:11:06.853Z,65.49
2019-03-04T03:12:05.822Z,65.18
2019-03-04T03:13:05.755Z,64.57
2019-03-04T03:14:05.596Z,64.67
2019-03-04T03:15:06.166Z,64.77
2019-03-04T03:16:05.559Z,64.74
2019-03-04T03:17:05.547Z,64.77
2019-03-04T03:18:06.450Z,64.57
2019-03-04T03:19:05.779Z,64.74
2019-03-04T03:20:05.555Z,64.43
2019-03-04T03:21:06.123Z,64.57
2019-03-04T03:22:05.634Z,64.77
2019-03-04T03:23:05.589Z,65.25
2019-03-04T03:24:05.852Z,64.74
2019-03-04T03:25:05.447Z,65.80
2019-03-04T03:26:06.287Z,65.90
2019-03-04T03:27:06.518Z,66.51
2019-03-04T03:28:05.462Z,67.23
2019-03-04T03:29:05.438Z,66.20
2019-03-04T03:30:06.281Z,67.54
2019-03-04T03:31:06.633Z,68.38
2019-03-04T03:32:05.548Z,69.10
2019-03-04T03:33:09.035Z,68.79
2019-03-04T03:34:08.639Z,69.61
2019-03-04T03:35:08.045Z,69.85
2019-03-04T03:36:09.131Z,69.85
2019-03-04T03:37:05.394Z,69.41
2019-03-04T03:38:06.311Z,69.71
2019-03-04T03:39:06.625Z,68.59
2019-03-04T03:40:06.478Z,69.20
2019-03-04T03:41:05.484Z,68.79
2019-03-04T03:42:05.349Z,68.93
2019-03-04T03:43:06.387Z,69.00
2019-03-04T03:44:06.347Z,68.93
2019-03-04T03:45:05.330Z,69.31
2019-03-04T03:46:05.469Z,68.93
2019-03-04T03:47:07.179Z,69.65
2019-03-04T03:48:05.469Z,68.83
2019-03-04T03:49:05.423Z,68.38
2019-03-04T03:50:06.439Z,68.38
2019-03-04T03:51:05.273Z,68.08
2019-03-04T03:52:05.253Z,68.38
2019-03-04T03:53:05.315Z,68.18
2019-03-04T03:54:06.270Z,68.62
2019-03-04T03:55:06.130Z,68.38
2019-03-04T03:56:06.217Z,68.49
2019-03-04T03:57:06.647Z,68.59
2019-03-04T03:58:05.389Z,68.49
2019-03-04T03:59:05.275Z,67.87
2019-03-04T04:00:05.300Z,68.49
2019-03-04T04:01:06.627Z,68.79
2019-03-04T04:02:06.198Z,68.18
2019-03-04T04:03:05.556Z,68.08
2019-03-04T04:04:05.219Z,68.28
2019-03-04T04:05:05.182Z,68.49
2019-03-04T04:06:05.212Z,67.87
2019-03-04T04:07:05.172Z,68.69
2019-03-04T04:08:05.155Z,68.49
2019-03-04T04:09:05.151Z,69.03
2019-03-04T04:10:05.168Z,69.65
2019-03-04T04:11:05.154Z,69.54
2019-03-04T04:12:05.164Z,69.44
2019-03-04T04:13:07.308Z,69.65
2019-03-04T04:14:05.276Z,69.85
2019-03-04T04:15:05.347Z,70.06
2019-03-04T04:16:06.229Z,69.95
2019-03-04T04:17:07.261Z,69.85
2019-03-04T04:18:05.250Z,69.44
2019-03-04T04:19:05.472Z,70.06
2019-03-04T04:20:07.636Z,70.06
2019-03-04T04:21:05.158Z,69.54
2019-03-04T04:22:07.137Z,69.44
2019-03-04T04:23:06.136Z,69.75
2019-03-04T04:24:07.243Z,69.54
2019-03-04T04:25:05.243Z,69.54
2019-03-04T04:26:06.703Z,70.06
2019-03-04T04:27:05.785Z,70.16
2019-03-04T04:28:07.320Z,69.89
2019-03-04T04:29:05.138Z,70.09
2019-03-04T04:30:05.197Z,70.06
2019-03-04T04:31:05.106Z,70.06
2019-03-04T04:32:05.638Z,69.78
2019-03-04T04:33:05.641Z,69.98
2019-03-04T04:34:05.210Z,69.98
2019-03-04T04:35:04.984Z,69.44
2019-03-04T04:36:05.021Z,69.75
2019-03-04T04:37:05.062Z,69.44
2019-03-04T04:38:05.023Z,68.93
2019-03-04T04:39:05.064Z,69.65
2019-03-04T04:40:04.959Z,69.54
2019-03-04T04:41:04.945Z,69.03
2019-03-04T04:42:04.941Z,70.06
2019-03-04T04:43:04.959Z,70.57
2019-03-04T04:44:05.070Z,70.87
2019-03-04T04:45:05.018Z,70.77
2019-03-04T04:46:04.882Z,70.26
2019-03-04T04:47:04.882Z,69.54
2019-03-04T04:48:04.881Z,70.33
2019-03-04T04:49:05.853Z,69.82
2019-03-04T04:50:04.944Z,69.82
2019-03-04T04:51:04.989Z,70.53
2019-03-04T04:52:04.937Z,69.00
2019-03-04T04:53:07.138Z,68.35
2019-03-04T04:54:04.922Z,68.59
2019-03-04T04:55:04.939Z,68.38
2019-03-04T04:56:06.570Z,67.64
2019-03-04T04:57:07.281Z,66.82
2019-03-04T04:58:48.687Z,66.61
2019-03-04T04:59:05.031Z,66.41
2019-03-04T05:00:06.234Z,66.07
2019-03-04T05:01:05.810Z,66.17
2019-03-04T05:02:04.809Z,65.97
2019-03-04T05:03:04.815Z,65.87
2019-03-04T05:04:04.818Z,65.97
2019-03-04T05:05:04.816Z,66.07
2019-03-04T05:06:04.867Z,65.73
2019-03-04T05:07:04.790Z,66.07
2019-03-04T05:08:04.796Z,66.28
2019-03-04T05:09:04.790Z,66.58
2019-03-04T05:10:04.766Z,66.58
2019-03-04T05:11:04.759Z,66.69
2019-03-04T05:12:04.756Z,66.58
2019-03-04T05:13:04.747Z,66.69
2019-03-04T05:14:04.760Z,66.58
2019-03-04T05:15:04.783Z,67.74
2019-03-04T05:16:04.748Z,66.69
2019-03-04T05:17:04.710Z,66.99
2019-03-04T05:18:04.721Z,66.28
2019-03-04T05:19:04.721Z,68.22
2019-03-04T05:20:04.703Z,68.46
2019-03-04T05:21:04.747Z,68.35
2019-03-04T05:22:05.662Z,68.46
2019-03-04T05:23:04.665Z,68.35
2019-03-04T05:24:04.674Z,68.35
2019-03-04T05:25:04.706Z,68.35
2019-03-04T05:26:04.706Z,67.02
2019-03-04T05:27:04.664Z,66.48
2019-03-04T05:28:04.658Z,66.48
2019-03-04T05:29:04.610Z,66.58
2019-03-04T05:30:04.642Z,66.31
2019-03-04T05:31:04.626Z,66.58
2019-03-04T05:32:04.603Z,66.17
2019-03-04T05:33:04.635Z,66.61
2019-03-04T05:34:04.611Z,66.20
2019-03-04T05:35:04.606Z,65.90
2019-03-04T05:36:04.594Z,66.07
2019-03-04T05:37:04.583Z,65.46
2019-03-04T05:38:04.608Z,65.25
2019-03-04T05:39:04.570Z,65.66
2019-03-04T05:40:04.580Z,65.69
2019-03-04T05:41:04.556Z,65.56
2019-03-04T05:42:04.552Z,65.87
2019-03-04T05:43:04.575Z,66.00
2019-03-04T05:44:04.582Z,65.77
2019-03-04T05:45:04.563Z,65.59
2019-03-04T05:46:04.545Z,66.07
2019-03-04T05:47:04.521Z,66.20
2019-03-04T05:48:04.507Z,66.31
2019-03-04T05:49:04.513Z,66.10
2019-03-04T05:50:04.508Z,66.31
2019-03-04T05:51:04.484Z,65.69
2019-03-04T05:52:04.465Z,65.90
2019-03-04T05:53:04.464Z,66.20
2019-03-04T05:54:04.461Z,65.59
2019-03-04T05:55:04.464Z,64.74
2019-03-04T05:56:04.432Z,64.47
2019-03-04T05:57:04.435Z,64.54
2019-03-04T05:58:04.423Z,64.54
2019-03-04T05:59:04.469Z,64.77
2019-03-04T06:00:04.427Z,64.87
2019-03-04T06:01:04.409Z,64.87
2019-03-04T06:02:04.392Z,64.87
2019-03-04T06:03:04.398Z,64.87
2019-03-04T06:04:04.371Z,64.03
2019-03-04T06:05:04.372Z,64.54
2019-03-04T06:06:05.371Z,64.64
2019-03-04T06:07:04.365Z,64.47
2019-03-04T06:08:04.349Z,64.36
2019-03-04T06:09:04.352Z,64.77
2019-03-04T06:10:04.345Z,64.47
2019-03-04T06:11:04.332Z,64.67
2019-03-04T06:12:04.327Z,64.77
2019-03-04T06:13:04.336Z,64.67
2019-03-04T06:14:04.318Z,64.87
2019-03-04T06:15:04.317Z,64.47
2019-03-04T06:16:04.316Z,64.87
2019-03-04T06:17:04.305Z,64.74
2019-03-04T06:18:04.288Z,63.92
2019-03-04T06:19:04.296Z,64.26
2019-03-04T06:20:04.279Z,64.16
2019-03-04T06:21:04.291Z,63.75
2019-03-04T06:22:04.289Z,64.16
2019-03-04T06:23:04.243Z,64.36
2019-03-04T06:24:04.242Z,64.26
2019-03-04T06:25:07.346Z,63.54
2019-03-04T06:26:04.234Z,63.85
2019-03-04T06:27:04.371Z,63.34
2019-03-04T06:28:04.274Z,63.44
2019-03-04T06:29:04.322Z,62.90
2019-03-04T06:30:04.286Z,63.41
2019-03-04T06:31:04.333Z,62.90
2019-03-04T06:32:04.274Z,63.13
2019-03-04T06:33:04.234Z,62.90
2019-03-04T06:34:04.331Z,63.31
2019-03-04T06:35:04.344Z,63.92
2019-03-04T06:36:04.306Z,62.83
2019-03-04T06:37:04.253Z,63.65
2019-03-04T06:38:04.279Z,62.93
2019-03-04T06:39:04.307Z,63.10
2019-03-04T06:40:04.283Z,62.93
2019-03-04T06:41:04.321Z,62.18
2019-03-04T06:42:04.280Z,61.98
2019-03-04T06:43:04.262Z,62.49
2019-03-04T06:44:04.233Z,62.59
2019-03-04T06:45:04.251Z,62.70
2019-03-04T06:46:04.240Z,62.29
2019-03-04T06:47:04.224Z,62.90
2019-03-04T06:48:04.705Z,62.49
2019-03-04T06:49:04.232Z,62.49
2019-03-04T06:50:04.220Z,62.49
2019-03-04T06:51:04.222Z,62.18
2019-03-04T06:52:04.213Z,62.49
2019-03-04T06:53:04.177Z,62.70
2019-03-04T06:54:04.222Z,63.00
2019-03-04T06:55:04.140Z,62.73
2019-03-04T06:56:04.182Z,62.73
2019-03-04T06:57:04.160Z,62.73
2019-03-04T06:58:04.159Z,62.70
2019-03-04T07:02:02.539Z,63.21
2019-03-04T07:04:38.205Z,61.98
2019-03-04T07:04:56.100Z,61.98
2019-03-04T07:05:56.114Z,63.10
2019-03-04T07:06:56.944Z,62.18
2019-03-04T07:07:56.120Z,62.80
2019-03-04T07:09:00.270Z,61.77
2019-03-04T07:09:56.088Z,61.77
2019-03-04T07:10:56.589Z,61.98
2019-03-04T07:11:56.081Z,61.67
2019-03-04T07:12:56.605Z,62.42
2019-03-04T07:13:56.089Z,61.77
2019-03-04T07:14:56.047Z,61.57
2019-03-04T07:15:56.104Z,61.77
2019-03-04T07:16:56.043Z,61.57
2019-03-04T07:17:56.053Z,61.57
2019-03-04T07:18:56.006Z,61.77
2019-03-04T07:19:56.157Z,62.73
2019-03-04T07:20:56.056Z,61.77
2019-03-04T07:21:56.009Z,61.77
2019-03-04T07:22:56.010Z,61.88
2019-03-04T07:23:56.587Z,61.67
2019-03-04T07:24:55.998Z,61.57
2019-03-04T07:25:56.604Z,61.67
2019-03-04T07:26:56.598Z,61.88
2019-03-04T07:27:56.409Z,61.47
2019-03-04T07:28:55.964Z,62.21
2019-03-04T07:29:56.150Z,62.59
2019-03-04T07:30:55.947Z,61.98
2019-03-04T07:31:55.941Z,62.70
2019-03-04T07:32:55.931Z,62.08
2019-03-04T07:33:55.923Z,62.18
2019-03-04T07:34:55.935Z,62.59
2019-03-04T07:35:55.940Z,62.08
2019-03-04T07:36:55.942Z,62.70
2019-03-04T07:37:55.893Z,62.83
2019-03-04T07:38:55.892Z,62.93
2019-03-04T07:39:55.887Z,62.80
2019-03-04T07:40:55.877Z,62.90
2019-03-04T07:41:55.896Z,63.95
2019-03-04T07:42:55.864Z,63.31
2019-03-04T07:43:55.850Z,62.93
2019-03-04T07:44:55.852Z,62.83
2019-03-04T07:45:55.831Z,62.73
2019-03-04T07:46:55.850Z,63.85
2019-03-04T07:47:55.831Z,63.65
2019-03-04T07:48:55.828Z,63.44
2019-03-04T07:49:55.799Z,63.54
2019-03-04T07:52:41.961Z,63.03
2019-03-04T07:52:55.805Z,63.72
2019-03-04T07:54:00.628Z,63.51
2019-03-04T07:54:55.763Z,63.65
2019-03-04T07:55:55.766Z,63.54
2019-03-04T07:56:56.629Z,63.82
2019-03-04T07:57:55.743Z,64.26
2019-03-04T07:58:55.731Z,64.16
2019-03-04T08:00:27.626Z,63.65
2019-03-04T08:00:55.722Z,63.65
2019-03-04T08:01:55.727Z,63.34
2019-03-04T08:02:55.736Z,62.93
2019-03-04T08:03:55.771Z,63.24
2019-03-04T08:04:56.317Z,62.11
2019-03-04T08:05:57.717Z,62.21
2019-03-04T08:06:56.301Z,62.01
2019-03-04T08:07:55.962Z,61.98
2019-03-04T08:08:58.470Z,61.77
2019-03-04T08:09:55.781Z,61.91
2019-03-04T08:10:57.323Z,61.98
2019-03-04T08:11:58.112Z,61.57
2019-03-04T08:12:56.152Z,61.47
2019-03-04T08:13:56.179Z,61.06
2019-03-04T08:14:55.633Z,60.35
2019-03-04T08:15:55.627Z,60.24
2019-03-04T08:16:55.619Z,60.21
2019-03-04T08:17:56.138Z,60.52
2019-03-04T08:18:55.609Z,60.01
2019-03-04T08:19:55.614Z,59.37
2019-03-04T08:20:55.606Z,58.75
2019-03-04T08:21:55.584Z,59.27
2019-03-04T08:22:55.591Z,58.75
2019-03-04T08:23:55.554Z,58.55
2019-03-04T08:24:55.564Z,59.03
2019-03-04T08:25:55.564Z,58.42
2019-03-04T08:26:55.540Z,58.93
2019-03-04T08:27:55.565Z,58.73
2019-03-04T08:28:58.705Z,58.62
2019-03-04T08:29:56.572Z,58.34
2019-03-04T08:30:55.607Z,58.75
2019-03-04T08:31:56.208Z,58.45
2019-03-04T08:32:56.998Z,58.34
2019-03-04T08:33:55.530Z,58.65
2019-03-04T08:34:55.578Z,57.84
2019-03-04T08:35:55.534Z,57.50
2019-03-04T08:36:55.522Z,57.63
2019-03-04T08:37:55.519Z,57.22
2019-03-04T08:38:55.511Z,57.40
2019-03-04T08:39:55.475Z,57.20
2019-03-04T08:40:55.494Z,57.43
2019-03-04T08:41:55.472Z,57.22
2019-03-04T08:42:55.635Z,57.09
2019-03-04T08:43:56.077Z,57.20
2019-03-04T08:44:57.149Z,57.09
2019-03-04T08:45:55.451Z,56.68
2019-03-04T08:46:55.426Z,56.48
2019-03-04T08:47:55.536Z,56.48
2019-03-04T08:48:55.978Z,56.66
2019-03-04T08:49:55.569Z,56.86
2019-03-04T08:50:55.433Z,55.74
2019-03-04T08:51:55.504Z,55.84
2019-03-04T08:52:55.980Z,55.87
2019-03-04T08:53:56.187Z,56.17
2019-03-04T08:54:56.988Z,55.66
2019-03-04T08:55:56.189Z,56.27
2019-03-04T08:57:03.591Z,55.97
2019-03-04T08:57:57.452Z,55.66
2019-03-04T08:58:57.076Z,54.74
2019-03-04T08:59:55.352Z,55.36
2019-03-04T09:00:55.338Z,55.36
2019-03-04T09:01:55.346Z,55.66
2019-03-04T09:02:55.338Z,56.71
2019-03-04T09:03:55.345Z,57.84
2019-03-04T09:04:56.149Z,59.53
2019-03-04T09:05:55.315Z,60.21
2019-03-04T09:06:55.293Z,60.44
2019-03-04T09:07:55.298Z,62.11
2019-03-04T09:08:55.297Z,62.21
2019-03-04T09:09:55.297Z,62.11
2019-03-04T09:10:55.276Z,62.01
2019-03-04T09:11:56.152Z,63.57
2019-03-04T09:12:55.306Z,63.75
2019-03-04T09:13:56.149Z,64.18
2019-03-04T09:14:55.249Z,65.14
2019-03-04T09:15:55.254Z,66.27
2019-03-04T09:16:55.229Z,67.08
2019-03-04T09:17:55.240Z,68.24
2019-03-04T09:18:55.248Z,68.89
2019-03-04T09:19:55.230Z,68.27
2019-03-04T09:20:55.224Z,68.38
2019-03-04T09:21:55.202Z,68.59
2019-03-04T09:22:55.178Z,69.30
2019-03-04T09:23:55.199Z,72.72
2019-03-04T09:24:55.200Z,77.85
2019-03-04T09:25:55.172Z,80.56
2019-03-04T09:26:55.164Z,82.39
2019-03-04T09:27:55.177Z,83.20
2019-03-04T09:28:56.006Z,83.25
2019-03-04T09:29:55.126Z,82.21
2019-03-04T09:30:55.129Z,83.65
2019-03-04T09:31:55.152Z,83.80
2019-03-04T09:32:55.130Z,83.18
2019-03-04T09:33:55.115Z,84.00
2019-03-04T09:34:55.122Z,81.47
2019-03-04T09:35:55.136Z,82.70
2019-03-04T09:36:55.126Z,82.81
2019-03-04T09:37:55.091Z,81.88
2019-03-04T09:38:55.124Z,81.71
2019-03-04T09:39:55.083Z,83.56
2019-03-04T09:40:55.661Z,83.56
2019-03-04T09:41:55.067Z,82.78
2019-03-04T09:42:55.074Z,78.66
2019-03-04T09:43:55.074Z,79.21
2019-03-04T09:44:55.083Z,79.11
2019-03-04T09:45:55.084Z,78.86
2019-03-04T09:46:55.087Z,80.04
2019-03-04T09:49:32.904Z,79.41
2019-03-04T09:50:34.095Z,77.52
2019-03-04T09:51:34.073Z,78.34
2019-03-04T09:52:34.067Z,76.90
2019-03-04T09:53:39.422Z,78.55
2019-03-04T09:54:36.045Z,77.22
2019-03-04T09:55:34.049Z,75.87
2019-03-04T09:56:34.069Z,75.98
2019-03-04T09:57:34.058Z,77.08
2019-03-04T09:58:34.031Z,78.31
2019-03-04T09:59:59.994Z,76.25
2019-03-04T10:00:34.046Z,75.08
2019-03-04T10:01:34.035Z,74.95
2019-03-04T10:02:34.019Z,75.56
2019-03-04T10:03:34.017Z,74.95
2019-03-04T10:04:34.028Z,73.98
2019-03-04T10:05:33.968Z,73.47
2019-03-04T10:06:33.998Z,74.19
2019-03-04T10:07:34.013Z,74.08
2019-03-04T10:08:33.977Z,73.85
2019-03-04T10:09:33.970Z,74.46
2019-03-04T10:10:33.961Z,73.23
2019-03-04T10:11:33.944Z,73.95
2019-03-04T10:12:33.955Z,74.15
2019-03-04T10:13:33.954Z,73.74
2019-03-04T10:14:33.965Z,72.38
2019-03-04T10:15:33.944Z,73.30
2019-03-04T10:16:33.925Z,72.38
2019-03-04T10:17:33.930Z,73.09
2019-03-04T10:18:33.902Z,72.96
2019-03-04T10:19:33.908Z,72.61
2019-03-04T10:20:33.897Z,73.02
2019-03-04T10:21:33.905Z,71.21
2019-03-04T10:22:33.886Z,72.31
2019-03-04T10:23:33.868Z,71.38
2019-03-04T10:24:41.702Z,72.58
2019-03-04T10:25:33.854Z,70.63
2019-03-04T10:26:33.895Z,70.76
2019-03-04T10:27:33.895Z,70.56
2019-03-04T10:28:33.868Z,70.73
2019-03-04T10:29:34.659Z,70.53
2019-03-04T10:30:33.871Z,70.12
2019-03-04T10:31:33.846Z,68.48
2019-03-04T10:32:33.844Z,69.50
2019-03-04T10:33:33.810Z,70.39
2019-03-04T10:34:33.827Z,69.37
2019-03-04T10:35:33.825Z,70.67
2019-03-04T10:36:33.797Z,69.61
2019-03-04T10:37:33.810Z,67.14
2019-03-04T10:38:33.782Z,68.72
2019-03-04T10:39:33.753Z,68.48
2019-03-04T10:40:34.570Z,67.02
2019-03-04T10:41:33.766Z,66.33
2019-03-04T10:42:33.690Z,66.84
2019-03-04T10:43:33.639Z,68.55
2019-03-04T10:44:37.860Z,66.88
2019-03-04T10:45:33.732Z,65.75
2019-03-04T10:46:33.735Z,64.22
2019-03-04T10:47:33.716Z,64.65
2019-03-04T10:48:33.729Z,65.61
2019-03-04T10:49:33.634Z,66.43
2019-03-04T10:50:33.674Z,65.12
2019-03-04T10:51:33.636Z,66.43
2019-03-04T10:52:33.657Z,66.22
2019-03-04T10:53:33.694Z,66.19
2019-03-04T10:54:34.185Z,66.71
2019-03-04T10:55:41.632Z,65.92
2019-03-04T10:56:35.671Z,65.71
2019-03-04T10:57:33.632Z,65.92
2019-03-04T10:58:33.653Z,65.61
2019-03-04T10:59:33.671Z,66.05
2019-03-04T11:00:33.638Z,67.18
2019-03-04T11:01:33.632Z,66.87
2019-03-04T11:02:33.610Z,67.90
2019-03-04T11:03:35.084Z,66.71
2019-03-04T11:04:34.074Z,64.83
2019-03-04T11:05:33.600Z,63.98
2019-03-04T11:06:33.587Z,63.57
2019-03-04T11:07:33.559Z,62.83
2019-03-04T11:08:33.599Z,61.77
2019-03-04T11:09:33.551Z,62.26
2019-03-04T11:10:33.577Z,63.93
2019-03-04T11:11:33.532Z,60.97
2019-03-04T11:12:33.542Z,60.28
2019-03-04T11:13:33.511Z,60.36
2019-03-04T11:14:33.497Z,58.32
2019-03-04T11:15:33.565Z,59.14
2019-03-04T11:16:33.544Z,57.20
2019-03-04T11:17:33.516Z,57.09
2019-03-04T11:18:33.504Z,57.60
2019-03-04T11:19:33.450Z,58.22
2019-03-04T11:20:33.466Z,59.04
2019-03-04T11:21:33.521Z,58.73
2019-03-04T11:22:33.524Z,57.81
2019-03-04T11:23:33.487Z,59.14
2019-03-04T11:24:34.235Z,57.20
2019-03-04T11:25:33.687Z,57.10
2019-03-04T11:26:33.456Z,55.66
2019-03-04T11:27:33.473Z,54.82
2019-03-04T11:28:33.437Z,54.44
2019-03-04T11:29:33.405Z,54.00
2019-03-04T11:30:33.442Z,54.51
2019-03-04T11:31:33.428Z,53.69
2019-03-04T11:32:33.422Z,54.21
2019-03-04T11:33:33.393Z,54.39
2019-03-04T11:34:34.088Z,53.88
2019-03-04T11:35:33.401Z,53.59
2019-03-04T11:36:33.434Z,53.90
2019-03-04T11:37:33.372Z,53.08
2019-03-04T11:38:33.376Z,53.69
2019-03-04T11:39:33.356Z,53.28
2019-03-04T11:40:33.360Z,53.82
2019-03-04T11:41:33.387Z,55.13
2019-03-04T11:42:33.304Z,54.74
2019-03-04T11:43:33.385Z,54.54
2019-03-04T11:44:33.360Z,54.61
2019-03-04T11:45:34.088Z,54.85
2019-03-04T11:46:33.367Z,55.02
2019-03-04T11:47:33.357Z,54.51
2019-03-04T11:48:33.338Z,55.13
2019-03-04T11:49:33.289Z,55.02
2019-03-04T11:50:33.269Z,56.05
2019-03-04T11:51:34.091Z,55.94
2019-03-04T11:52:33.274Z,53.62
2019-03-04T11:53:33.328Z,54.74
2019-03-04T11:54:33.239Z,55.46
2019-03-04T11:55:33.290Z,55.36
2019-03-04T11:56:33.280Z,55.66
2019-03-04T11:57:33.226Z,55.64
2019-03-04T11:58:33.267Z,55.77
2019-03-04T11:59:37.934Z,56.79
2019-03-04T12:00:34.082Z,56.79
2019-03-04T12:01:33.132Z,56.92
2019-03-04T12:02:38.973Z,58.28
2019-03-04T12:03:35.215Z,58.61
2019-03-04T12:04:33.257Z,60.86
2019-03-04T12:05:33.166Z,61.69
2019-03-04T12:06:33.154Z,62.12
2019-03-04T12:07:33.158Z,64.89
2019-03-04T12:08:33.180Z,64.17
2019-03-04T12:09:33.196Z,63.94
2019-03-04T12:10:33.199Z,64.69
2019-03-04T12:11:38.143Z,64.35
2019-03-04T12:12:35.063Z,66.84
2019-03-04T12:13:33.120Z,65.57
2019-03-04T12:14:33.048Z,64.95
2019-03-04T12:15:33.045Z,67.24
2019-03-04T12:16:33.169Z,72.41
2019-03-04T12:17:33.937Z,70.08
2019-03-04T12:18:35.018Z,73.06
2019-03-04T12:19:34.991Z,71.58
2019-03-04T12:20:33.045Z,74.80
2019-03-04T12:21:33.018Z,76.07
2019-03-04T12:22:32.984Z,77.45
2019-03-04T12:23:32.994Z,78.52
2019-03-04T12:24:32.989Z,80.93
2019-03-04T12:25:32.983Z,79.90
2019-03-04T12:26:32.986Z,81.65
2019-03-04T12:27:32.963Z,81.44
2019-03-04T12:28:32.945Z,79.72
2019-03-04T12:29:32.977Z,80.72
2019-03-04T12:30:32.929Z,82.98
2019-03-04T12:31:32.950Z,81.17
2019-03-04T12:32:32.915Z,82.51
2019-03-04T12:33:32.933Z,83.23
2019-03-04T12:34:32.935Z,83.37
2019-03-04T12:35:32.934Z,85.23
2019-03-04T12:36:32.934Z,83.58
2019-03-04T12:37:32.914Z,84.81
2019-03-04T12:38:32.912Z,85.17
2019-03-04T12:39:32.895Z,84.03
2019-03-04T12:40:32.891Z,85.47
2019-03-04T12:41:32.880Z,83.93
2019-03-04T12:42:32.894Z,85.54
2019-03-04T12:43:32.883Z,85.75
2019-03-04T12:44:32.861Z,86.88
2019-03-04T12:45:34.674Z,85.23
2019-03-04T12:46:33.852Z,85.39
2019-03-04T12:47:32.847Z,84.22
2019-03-04T12:48:32.837Z,83.19
2019-03-04T12:49:32.825Z,84.70
2019-03-04T12:50:32.811Z,82.81
2019-03-04T12:51:32.802Z,82.67
2019-03-04T12:52:32.810Z,82.32
2019-03-04T12:53:37.406Z,79.88
2019-03-04T12:54:33.784Z,78.09
2019-03-04T12:55:32.800Z,76.86
2019-03-04T12:56:32.774Z,76.76
2019-03-04T12:57:32.773Z,78.03
2019-03-04T12:58:32.758Z,74.70